Time;durP1;ratioP1;P1;durP2;ratioP2;P2;SDS_P1;SDS_P2;PMS_P1;PMS_P2;Temp;Humidity;BMP_temperature;BMP_pressure;BME280_temperature;BME280_humidity;BME280_pressure;Samples;Min_cycle;Max_cycle;Signal;HPM_P1;HPM_P2
2021/03/22 00:00:55;;;;;;;22.75;12.93;;;;;;;-0.81;89.82;95981.23;1776042;80;21529;-79
2021/03/22 00:03:24;;;;;;;22.48;14.18;;;;;;;-0.81;89.82;95986.45;1768557;80;21136;-79
2021/03/22 00:05:53;;;;;;;26.60;15.40;;;;;;;-0.79;89.54;95990.13;1796827;78;21138;-79
2021/03/22 00:08:23;;;;;;;17.23;10.18;;;;;;;-0.78;89.47;95991.20;1797404;80;21149;-79
2021/03/22 00:10:52;;;;;;;14.07;9.17;;;;;;;-0.80;89.77;95988.03;1809002;78;21103;-79
2021/03/22 00:13:22;;;;;;;26.87;16.57;;;;;;;-0.81;90.28;95986.95;1804358;78;21353;-79
2021/03/22 00:15:52;;;;;;;28.17;17.45;;;;;;;-0.84;89.90;95990.80;1788484;78;21144;-79
2021/03/22 00:18:24;;;;;;;26.82;16.57;;;;;;;-0.83;89.82;95983.78;1781900;80;21075;-79
2021/03/22 00:20:51;;;;;;;22.90;13.40;;;;;;;-0.83;89.87;95985.88;1784623;79;21139;-79
2021/03/22 00:23:18;;;;;;;23.90;14.50;;;;;;;-0.82;89.74;95985.37;1789613;79;21119;-79
2021/03/22 00:25:45;;;;;;;24.77;14.98;;;;;;;-0.81;89.66;95992.16;1772561;80;21146;-79
2021/03/22 00:28:14;;;;;;;20.37;13.50;;;;;;;-0.81;89.53;95997.36;1780031;79;21135;-79
2021/03/22 00:30:45;;;;;;;21.37;12.35;;;;;;;-0.80;89.36;95994.53;1773084;80;21145;-79
2021/03/22 00:33:14;;;;;;;20.60;12.95;;;;;;;-0.78;89.29;96000.30;1797969;79;21132;-79
2021/03/22 00:35:43;;;;;;;22.25;12.80;;;;;;;-0.79;89.21;95994.81;1779345;79;21150;-79
2021/03/22 00:38:12;;;;;;;20.23;13.53;;;;;;;-0.78;89.10;96006.02;1769106;79;21156;-79
2021/03/22 00:40:43;;;;;;;20.60;12.50;;;;;;;-0.76;88.99;96006.59;1779201;80;21124;-79
2021/03/22 00:43:12;;;;;;;17.67;10.72;;;;;;;-0.75;88.88;96006.36;1786161;79;21218;-79
2021/03/22 00:45:39;;;;;;;20.23;10.80;;;;;;;-0.75;88.75;96003.77;1790473;79;21152;-79
2021/03/22 00:48:08;;;;;;;16.05;10.53;;;;;;;-0.74;88.69;96008.45;1771177;80;21132;-79
2021/03/22 00:50:42;;;;;;;19.12;10.53;;;;;;;-0.74;88.73;95994.94;1773550;80;21175;-79
2021/03/22 00:53:13;;;;;;;15.15;10.30;;;;;;;-0.74;88.78;96007.16;1784992;79;21141;-78
2021/03/22 00:55:41;;;;;;;19.87;9.70;;;;;;;-0.76;88.64;96007.37;1789806;79;21127;-79
2021/03/22 00:58:09;;;;;;;15.10;9.58;;;;;;;-0.74;88.55;96001.95;1780982;79;21114;-79
2021/03/22 01:00:47;;;;;;;18.27;9.93;;;;;;;-0.74;88.45;95998.84;1792891;79;21134;-79
2021/03/22 01:06:05;;;;;;;15.05;8.18;;;;;;;-0.67;88.34;95996.95;1784451;79;22920;-78
2021/03/22 01:08:37;;;;;;;19.70;10.98;;;;;;;-0.69;88.31;96008.61;1764532;80;21103;-78
2021/03/22 01:11:10;;;;;;;16.75;9.20;;;;;;;-0.71;88.29;96004.10;1767772;80;21175;-78
2021/03/22 01:13:42;;;;;;;15.45;9.20;;;;;;;-0.73;88.38;96005.63;1738635;82;21178;-79
2021/03/22 01:16:10;;;;;;;16.85;9.65;;;;;;;-0.73;88.33;96006.14;1723880;83;21465;-79
2021/03/22 01:18:42;;;;;;;17.10;8.80;;;;;;;-0.73;88.41;96003.54;1716274;82;21154;-78
2021/03/22 01:21:32;;;;;;;19.12;11.73;;;;;;;-0.75;88.57;96005.06;1731864;82;21538;-78
2021/03/22 01:24:01;;;;;;;19.27;12.15;;;;;;;-0.77;88.54;96016.72;1728317;83;21162;-79
2021/03/22 01:26:32;;;;;;;19.10;12.00;;;;;;;-0.78;88.62;96014.63;1739903;82;21167;-79
2021/03/22 01:29:02;;;;;;;18.40;11.65;;;;;;;-0.80;88.75;96017.95;1712747;83;21137;-79
2021/03/22 01:31:29;;;;;;;15.38;10.18;;;;;;;-0.81;88.74;96021.57;1735897;82;21155;-79
2021/03/22 01:33:56;;;;;;;21.02;12.55;;;;;;;-0.80;88.86;96019.25;1729843;82;21117;-79
2021/03/22 01:36:28;;;;;;;16.17;8.88;;;;;;;-0.80;88.69;96019.25;1715417;81;21512;-79
2021/03/22 01:39:15;;;;;;;19.00;12.98;;;;;;;-0.77;88.62;96024.02;1716257;82;21137;-79
2021/03/22 01:42:10;;;;;;;18.70;12.45;;;;;;;-0.76;88.58;96024.30;1722838;83;21557;-79
2021/03/22 01:44:48;;;;;;;17.90;12.10;;;;;;;-0.75;88.48;96026.39;1722425;82;21499;-79
2021/03/22 01:47:21;;;;;;;17.45;10.35;;;;;;;-0.73;88.40;96023.84;1713474;83;21479;-79
2021/03/22 01:50:08;;;;;;;18.20;12.47;;;;;;;-0.70;88.40;96031.23;1725574;82;21135;-79
2021/03/22 01:52:39;;;;;;;23.12;14.47;;;;;;;-0.70;88.33;96028.64;1728169;80;21150;-79
2021/03/22 01:55:09;;;;;;;21.68;13.15;;;;;;;-0.69;88.30;96034.12;1705567;83;21112;-79
2021/03/22 01:57:44;;;;;;;23.22;12.70;;;;;;;-0.68;88.24;96041.42;1726374;83;21172;-79
2021/03/22 02:00:26;;;;;;;20.62;13.13;;;;;;;-0.66;88.21;96040.19;1732823;82;21145;-79
2021/03/22 02:03:09;;;;;;;22.00;13.83;;;;;;;-0.65;88.14;96039.16;1723157;82;21159;-79
2021/03/22 02:05:50;;;;;;;15.98;11.45;;;;;;;-0.62;88.10;96040.53;1746651;81;21111;-79
2021/03/22 02:08:34;;;;;;;24.18;14.25;;;;;;;-0.62;88.01;96046.53;1745015;81;21136;-79
2021/03/22 02:11:01;;;;;;;23.32;13.60;;;;;;;-0.65;87.95;96042.28;1730093;83;21542;-79
2021/03/22 02:13:33;;;;;;;16.93;11.15;;;;;;;-0.65;87.91;96048.28;1733718;81;21515;-79
2021/03/22 02:16:17;;;;;;;19.80;12.40;;;;;;;-0.66;87.90;96038.88;1726506;83;21148;-78
2021/03/22 02:22:28;;;;;;;19.45;13.70;;;;;;;-0.61;87.74;96045.51;1753837;79;28187;-77
2021/03/22 02:25:21;;;;;;;17.35;11.38;;;;;;;-0.74;87.50;96027.98;1729382;83;21125;-79
2021/03/22 02:28:43;;;;;;;17.92;12.00;;;;;;;-0.74;87.50;96027.98;1727795;82;21119;-79
2021/03/22 02:31:56;;;;;;;11.12;6.67;;;;;;;-0.66;87.28;96046.69;1718200;82;21169;-79
2021/03/22 02:34:31;;;;;;;15.98;10.15;;;;;;;-0.71;87.22;96049.14;1725912;81;21155;-79
2021/03/22 02:37:25;;;;;;;15.58;9.65;;;;;;;-0.73;87.03;96047.78;1718200;81;21115;-79
2021/03/22 02:40:16;;;;;;;17.42;8.88;;;;;;;-0.75;87.02;96055.81;1729821;82;21111;-79
2021/03/22 02:42:47;;;;;;;15.68;9.10;;;;;;;-0.77;86.65;96051.84;1705830;83;21134;-79
2021/03/22 02:45:32;;;;;;;14.23;9.15;;;;;;;-0.79;86.52;96055.97;1711990;82;21162;-79
2021/03/22 02:47:59;;;;;;;12.65;8.48;;;;;;;-0.81;86.42;96055.91;1722022;82;21155;-79
2021/03/22 02:50:40;;;;;;;13.98;8.78;;;;;;;-0.81;86.31;96057.21;1728073;83;21110;-79
2021/03/22 02:53:30;;;;;;;17.12;9.35;;;;;;;-0.82;86.19;96063.44;1709908;83;21143;-79
2021/03/22 02:56:14;;;;;;;14.50;8.38;;;;;;;-0.80;86.14;96062.19;1723580;83;21800;-79
2021/03/22 02:58:47;;;;;;;12.03;7.33;;;;;;;-0.81;85.99;96071.02;1722670;82;21115;-79
2021/03/22 03:01:31;;;;;;;14.60;8.88;;;;;;;-0.82;85.89;96069.43;1730731;81;21522;-79
2021/03/22 03:04:00;;;;;;;14.00;8.95;;;;;;;-0.81;85.80;96077.52;1727434;81;21443;-79
2021/03/22 03:07:02;;;;;;;13.32;8.08;;;;;;;-0.79;85.70;96085.90;1730080;81;21159;-79
2021/03/22 03:09:34;;;;;;;16.25;8.95;;;;;;;-0.77;85.65;96091.67;1723480;83;21471;-79
2021/03/22 03:12:19;;;;;;;15.70;9.15;;;;;;;-0.78;85.44;96091.39;1733698;81;21132;-79
2021/03/22 03:14:51;;;;;;;15.25;8.33;;;;;;;-0.76;85.42;96091.17;1726275;83;21104;-79
2021/03/22 03:17:21;;;;;;;13.53;8.78;;;;;;;-0.76;85.36;96088.06;1732677;82;21115;-79
2021/03/22 03:19:51;;;;;;;14.53;7.75;;;;;;;-0.76;85.18;96085.96;1718147;83;21522;-79
2021/03/22 03:22:20;;;;;;;;;;;;;;;-0.78;84.96;96082.28;1729448;82;21164;-79
2021/03/22 03:24:47;;;;;;;13.80;7.35;;;;;;;-0.76;84.90;96092.47;1732351;82;20142;-79
2021/03/22 03:27:15;;;;;;;12.20;7.92;;;;;;;-0.79;84.76;96087.20;1735392;81;21151;-79
2021/03/22 03:29:44;;;;;;;12.33;8.00;;;;;;;-0.81;84.60;96089.73;1723841;83;21475;-79
2021/03/22 03:32:15;;;;;;;14.28;8.33;;;;;;;-0.83;84.63;96079.55;1733969;82;21101;-79
2021/03/22 03:34:43;;;;;;;14.55;7.90;;;;;;;-0.83;84.57;96094.38;1723348;83;21186;-79
2021/03/22 03:37:11;;;;;;;10.28;6.65;;;;;;;-0.85;84.57;96090.66;1729834;81;21139;-79
2021/03/22 03:39:40;;;;;;;15.53;9.33;;;;;;;-0.84;84.49;96100.59;1734208;81;21154;-79
2021/03/22 03:42:10;;;;;;;17.23;9.23;;;;;;;-0.86;84.52;96099.48;1733590;82;21151;-79
2021/03/22 03:44:39;;;;;;;17.10;9.58;;;;;;;-0.86;84.55;96099.48;1720041;82;21249;-79
2021/03/22 03:47:08;;;;;;;12.15;7.60;;;;;;;-0.86;84.56;96111.19;1712654;81;21475;-79
2021/03/22 03:49:35;;;;;;;12.88;7.75;;;;;;;-0.85;84.57;96106.27;1728561;82;21500;-79
2021/03/22 03:52:05;;;;;;;12.13;7.65;;;;;;;-0.87;84.35;96111.41;1720592;83;21155;-79
2021/03/22 03:54:33;;;;;;;15.23;9.03;;;;;;;-0.92;84.42;96104.27;1717259;83;21504;-79
2021/03/22 03:57:00;;;;;;;13.58;7.90;;;;;;;-0.94;84.34;96110.20;1728724;82;21470;-79
2021/03/22 03:59:27;;;;;;;16.45;9.58;;;;;;;-0.98;84.43;96106.45;1728736;82;21515;-79
2021/03/22 04:01:54;;;;;;;15.35;9.25;;;;;;;-1.04;84.24;96110.70;1722223;82;21143;-79
2021/03/22 04:04:21;;;;;;;15.83;10.40;;;;;;;-1.05;84.42;96113.52;1728612;83;21136;-79
2021/03/22 04:06:48;;;;;;;17.70;10.65;;;;;;;-1.08;84.46;96116.05;1726128;81;21159;-79
2021/03/22 04:09:18;;;;;;;12.53;7.37;;;;;;;-1.05;84.50;96118.72;1732604;81;21140;-79
2021/03/22 04:11:49;;;;;;;13.35;7.00;;;;;;;-1.03;84.42;96119.30;1705995;83;21138;-79
2021/03/22 04:14:26;;;;;;;15.40;8.20;;;;;;;-1.05;84.25;96120.82;1729884;81;21245;-79
2021/03/22 04:16:53;;;;;;;11.97;7.83;;;;;;;-1.06;84.16;96117.14;1739422;81;21492;-79
2021/03/22 04:19:21;;;;;;;9.10;5.92;;;;;;;-1.07;84.12;96129.86;1736974;82;21632;-79
2021/03/22 04:21:49;;;;;;;10.72;6.87;;;;;;;-1.08;83.99;96121.77;1717803;83;21139;-79
2021/03/22 04:24:21;;;;;;;12.03;7.40;;;;;;;-1.12;83.83;96131.81;1729612;81;21091;-79
2021/03/22 04:26:48;;;;;;;11.18;7.08;;;;;;;-1.18;83.74;96136.56;1716491;82;21161;-79
2021/03/22 04:29:15;;;;;;;9.30;5.80;;;;;;;-1.23;83.64;96133.31;1726487;83;21444;-79
2021/03/22 04:31:42;;;;;;;10.75;5.92;;;;;;;-1.24;83.61;96131.73;1728458;82;21496;-79
2021/03/22 04:34:13;;;;;;;11.38;5.62;;;;;;;-1.24;83.62;96148.62;1726008;83;21125;-79
2021/03/22 04:36:41;;;;;;;9.55;6.00;;;;;;;-1.24;83.62;96140.03;1716815;81;22226;-78
2021/03/22 04:39:09;;;;;;;11.10;6.12;;;;;;;-1.26;83.54;96149.86;1729012;81;21179;-79
2021/03/22 04:41:38;;;;;;;9.83;5.53;;;;;;;-1.27;83.50;96155.57;1721480;83;21127;-79
2021/03/22 04:44:07;;;;;;;8.93;5.40;;;;;;;-1.28;83.14;96158.36;1725076;83;21483;-79
2021/03/22 04:46:34;;;;;;;7.90;5.03;;;;;;;-1.32;82.76;96170.20;1741088;81;21151;-79
2021/03/22 04:49:02;;;;;;;8.80;5.65;;;;;;;-1.35;82.67;96171.43;1732723;82;21115;-79
2021/03/22 04:51:30;;;;;;;8.93;5.35;;;;;;;-1.36;82.67;96182.84;1745803;81;21499;-79
2021/03/22 04:53:59;;;;;;;11.55;5.62;;;;;;;-1.37;82.53;96185.16;1743887;81;21616;-79
2021/03/22 04:56:26;;;;;;;13.10;6.60;;;;;;;-1.39;82.48;96183.27;1738974;81;21513;-79
2021/03/22 04:58:54;;;;;;;9.05;6.08;;;;;;;-1.37;82.51;96183.85;1749057;81;21123;-79
2021/03/22 05:01:21;;;;;;;9.60;5.70;;;;;;;-1.36;82.55;96186.74;1728441;82;21112;-79
2021/03/22 05:03:48;;;;;;;9.80;5.67;;;;;;;-1.34;82.46;96191.72;1723996;81;21134;-79
2021/03/22 05:06:15;;;;;;;9.38;6.30;;;;;;;-1.36;82.32;96201.05;1725425;82;21276;-79
2021/03/22 05:08:42;;;;;;;10.80;5.72;;;;;;;-1.35;82.28;96208.34;1749104;81;21123;-79
2021/03/22 05:11:10;;;;;;;10.25;5.28;;;;;;;-1.36;82.19;96206.75;1716557;83;21494;-79
2021/03/22 05:13:37;;;;;;;10.13;5.20;;;;;;;-1.35;82.04;96214.84;1725606;81;21212;-79
2021/03/22 05:16:05;;;;;;;12.98;5.97;;;;;;;-1.38;81.50;96220.47;1734581;82;21163;-79
2021/03/22 05:18:32;;;;;;;10.05;5.35;;;;;;;-1.41;81.51;96222.96;1723565;82;21103;-79
2021/03/22 05:21:04;;;;;;;9.53;5.30;;;;;;;-1.41;81.34;96223.47;1733098;81;21118;-79
2021/03/22 05:23:35;;;;;;;9.88;5.47;;;;;;;-1.40;81.26;96227.69;1750276;81;21155;-79
2021/03/22 05:26:04;;;;;;;7.95;5.20;;;;;;;-1.41;81.27;96235.96;1730940;83;21137;-79
2021/03/22 05:28:34;;;;;;;10.05;4.92;;;;;;;-1.40;81.23;96239.39;1724495;83;21258;-79
2021/03/22 05:31:03;;;;;;;10.20;4.28;;;;;;;-1.42;80.79;96242.67;1723438;83;21560;-79
2021/03/22 05:33:30;;;;;;;11.12;5.20;;;;;;;-1.44;80.56;96233.80;1732995;81;21132;-79
2021/03/22 05:36:00;;;;;;;8.80;5.15;;;;;;;-1.46;80.46;96244.11;1733974;81;21140;-79
2021/03/22 05:38:29;;;;;;;4.80;3.00;;;;;;;-1.45;80.52;96247.80;1721743;83;21217;-79
2021/03/22 05:41:07;;;;;;;6.45;4.22;;;;;;;-1.42;80.57;96246.07;1724785;81;21159;-79
2021/03/22 05:43:52;;;;;;;7.12;4.53;;;;;;;-1.40;80.49;96243.28;1725631;83;21144;-79
2021/03/22 05:46:45;;;;;;;9.55;5.42;;;;;;;-1.38;80.37;96230.36;1740357;81;21111;-79
2021/03/22 05:49:47;;;;;;;7.25;4.15;;;;;;;-1.36;80.36;96236.14;1733666;82;21180;-79
2021/03/22 05:52:48;;;;;;;8.50;5.05;;;;;;;-1.32;80.10;96238.60;1735762;81;21087;-79
2021/03/22 05:55:39;;;;;;;11.28;5.33;;;;;;;-1.37;79.83;96241.55;1748293;81;21133;-80
2021/03/22 05:58:43;;;;;;;7.42;5.22;;;;;;;-1.43;79.80;96243.18;1756430;81;21475;-79
2021/03/22 06:01:37;;;;;;;10.38;5.03;;;;;;;-1.42;80.00;96249.97;1728260;81;21502;-79
2021/03/22 06:04:26;;;;;;;5.90;4.20;;;;;;;-1.37;80.09;96259.25;1719464;83;21107;-78
2021/03/22 06:06:53;;;;;;;11.03;6.00;;;;;;;-1.36;79.77;96262.14;1740044;81;21448;-79
2021/03/22 06:09:38;;;;;;;12.10;5.78;;;;;;;-1.46;79.66;96265.70;1737650;81;21522;-79
2021/03/22 06:12:39;;;;;;;8.18;5.17;;;;;;;-1.44;79.92;96265.49;1723340;81;21184;-79
2021/03/22 06:15:31;;;;;;;8.35;5.45;;;;;;;-1.38;80.04;96274.56;1725940;82;21503;-79
2021/03/22 06:18:03;;;;;;;12.07;5.80;;;;;;;-1.32;80.13;96275.00;1736061;81;21163;-79
2021/03/22 06:20:40;;;;;;;11.63;6.10;;;;;;;-1.31;79.96;96284.39;1732063;81;21147;-79
2021/03/22 06:23:24;;;;;;;10.60;5.67;;;;;;;-1.27;80.03;96281.69;1708972;83;21163;-79
2021/03/22 06:25:51;;;;;;;8.73;6.08;;;;;;;-1.26;79.94;96287.18;1698946;81;21249;-79
2021/03/22 06:28:24;;;;;;;8.25;5.87;;;;;;;-1.17;80.01;96286.90;1725477;82;21533;-79
2021/03/22 06:31:11;;;;;;;9.85;5.85;;;;;;;-1.09;80.03;96288.75;1735563;81;21099;-79
2021/03/22 06:33:42;;;;;;;8.60;4.80;;;;;;;-1.02;79.86;96282.97;1730988;81;21518;-79
2021/03/22 06:38:58;;;;;;;10.13;5.65;;;;;;;-0.98;79.22;96287.27;1873878;75;23070;-78
2021/03/22 06:41:49;;;;;;;12.15;6.65;;;;;;;-1.02;79.41;96292.58;1816666;77;21486;-78
2021/03/22 06:44:36;;;;;;;8.43;4.80;;;;;;;-1.02;79.36;96300.38;1833596;77;21142;-79
2021/03/22 06:47:14;;;;;;;13.72;6.78;;;;;;;-1.01;79.28;96303.28;1824603;77;21091;-79
2021/03/22 06:49:50;;;;;;;10.60;6.83;;;;;;;-1.02;79.39;96313.39;1841659;76;21201;-79
2021/03/22 06:52:26;;;;;;;11.05;7.35;;;;;;;-0.98;79.39;96315.88;1834946;77;21624;-79
2021/03/22 06:54:57;;;;;;;13.85;7.83;;;;;;;-0.99;79.25;96312.45;1826072;77;21159;-79
2021/03/22 06:57:28;;;;;;;10.95;6.70;;;;;;;-0.95;79.16;96319.36;1840536;77;21111;-79
2021/03/22 07:00:10;;;;;;;;;;;;;;;-0.98;79.24;96317.19;1862910;76;21610;-79
2021/03/22 07:02:57;;;;;;;11.80;7.25;;;;;;;-0.98;79.28;96324.98;1839392;77;20288;-79
2021/03/22 07:05:35;;;;;;;13.78;7.95;;;;;;;-0.98;79.37;96336.19;1838644;77;21083;-79
2021/03/22 07:08:10;;;;;;;12.43;7.97;;;;;;;-0.97;79.33;96344.28;1841460;76;21136;-79
2021/03/22 07:10:55;;;;;;;15.08;8.35;;;;;;;-0.97;79.40;96341.69;1848205;76;21205;-79
2021/03/22 07:13:26;;;;;;;14.15;8.10;;;;;;;-0.93;79.47;96335.55;1849508;76;21444;-79
2021/03/22 07:15:57;;;;;;;11.37;8.50;;;;;;;-0.92;79.49;96350.14;1828572;76;21248;-79
2021/03/22 07:18:31;;;;;;;15.88;8.65;;;;;;;-0.77;79.59;96337.61;1830231;76;21253;-79
2021/03/22 07:21:13;;;;;;;13.72;8.48;;;;;;;-0.58;79.75;96341.55;1776629;80;21439;-79
2021/03/22 07:23:55;;;;;;;15.93;8.43;;;;;;;-0.34;79.58;96345.94;1792634;79;21151;-79
2021/03/22 07:26:36;;;;;;;11.03;7.55;;;;;;;-0.05;79.26;96352.24;1764758;80;21261;-79
2021/03/22 07:32:48;;;;;;;13.00;6.62;;;;;;;0.72;78.05;96361.14;1809971;79;23004;-79
2021/03/22 07:35:46;;;;;;;10.28;6.60;;;;;;;1.14;77.50;96365.84;1769831;80;21105;-78
2021/03/22 07:38:27;;;;;;;9.30;6.45;;;;;;;1.68;76.34;96370.98;1763074;80;21512;-79
2021/03/22 07:41:09;;;;;;;11.22;7.53;;;;;;;2.96;75.30;96362.83;1755674;80;21125;-79
2021/03/22 07:44:07;;;;;;;9.50;6.25;;;;;;;3.91;74.87;96364.27;1790541;80;21124;-79
2021/03/22 07:47:17;;;;;;;8.63;6.10;;;;;;;6.49;75.34;96361.86;1773846;80;21272;-79
2021/03/22 07:49:59;;;;;;;9.38;5.60;;;;;;;8.45;71.02;96357.13;1791441;80;21119;-79
2021/03/22 07:52:39;;;;;;;7.15;4.67;;;;;;;8.91;64.40;96356.38;1778840;80;21532;-79
2021/03/22 07:55:37;;;;;;;10.45;6.08;;;;;;;10.41;66.63;96363.05;1760888;80;21284;-79
2021/03/22 07:58:31;;;;;;;9.03;5.78;;;;;;;12.53;62.79;96348.09;1767836;80;21154;-79
2021/03/22 08:01:45;;;;;;;7.05;4.90;;;;;;;14.22;62.30;96358.58;1776652;80;21490;-79
2021/03/22 08:04:42;;;;;;;5.53;3.08;;;;;;;14.82;60.68;96360.67;1761512;80;21508;-77
2021/03/22 08:07:38;;;;;;;10.95;6.80;;;;;;;16.52;56.62;96359.00;1753053;80;21253;-78
2021/03/22 08:10:27;;;;;;;7.53;5.75;;;;;;;17.31;53.69;96356.88;1788973;80;21497;-79
2021/03/22 08:13:17;;;;;;;7.08;3.92;;;;;;;18.00;51.81;96358.95;1778521;80;21132;-79
2021/03/22 08:16:08;;;;;;;7.75;5.08;;;;;;;18.62;46.05;96355.25;1773090;80;21084;-79
2021/03/22 08:18:59;;;;;;;;;;;;;;;17.68;45.56;96363.22;1785153;79;21100;-78
2021/03/22 08:21:51;;;;;;;8.05;4.50;;;;;;;15.26;35.06;96362.84;1780886;80;20141;-79
2021/03/22 08:24:57;;;;;;;8.03;4.50;;;;;;;12.73;38.84;96368.16;1767291;80;21276;-79
2021/03/22 08:27:30;;;;;;;8.53;4.60;;;;;;;11.81;40.28;96371.18;1770992;80;21153;-78
2021/03/22 08:30:29;;;;;;;8.20;4.62;;;;;;;12.39;43.55;96373.36;1780949;80;21165;-78
2021/03/22 08:33:42;;;;;;;6.05;4.17;;;;;;;12.79;43.43;96372.28;1766010;80;21634;-79
2021/03/22 08:36:24;;;;;;;7.42;3.70;;;;;;;12.91;45.22;96377.88;1772503;79;21630;-78
2021/03/22 08:38:56;;;;;;;6.80;4.15;;;;;;;14.98;37.55;96373.58;1799312;79;21253;-78
2021/03/22 08:41:38;;;;;;;6.67;4.17;;;;;;;13.22;39.02;96372.72;1777406;80;21146;-79
2021/03/22 08:44:20;;;;;;;6.58;3.80;;;;;;;12.24;42.39;96375.48;1760966;80;21139;-79
2021/03/22 08:46:53;;;;;;;6.47;3.75;;;;;;;12.97;43.17;96382.03;1771345;80;21145;-78
2021/03/22 08:49:43;;;;;;;7.22;3.02;;;;;;;13.85;42.21;96377.66;1768613;80;21496;-78
2021/03/22 08:52:36;;;;;;;5.97;3.47;;;;;;;13.32;41.56;96376.48;1772935;80;21112;-78
2021/03/22 08:55:16;;;;;;;7.05;3.83;;;;;;;11.73;41.60;96387.77;1764282;80;21105;-79
2021/03/22 08:58:01;;;;;;;6.90;3.87;;;;;;;12.11;43.36;96387.16;1770565;79;21126;-78
2021/03/22 09:00:42;;;;;;;5.80;3.55;;;;;;;12.67;42.75;96382.13;1765266;79;21122;-79
2021/03/22 09:03:29;;;;;;;5.80;3.20;;;;;;;12.86;41.79;96384.66;1769719;79;21469;-79
2021/03/22 09:06:17;;;;;;;5.55;3.20;;;;;;;11.35;41.13;96394.19;1768983;79;21535;-79
2021/03/22 09:09:02;;;;;;;9.83;3.10;;;;;;;9.78;42.12;96399.67;1794143;79;21121;-79
2021/03/22 09:11:48;;;;;;;5.03;2.87;;;;;;;8.57;42.85;96390.61;1777022;80;21263;-79
2021/03/22 09:14:41;;;;;;;7.45;3.22;;;;;;;7.57;43.77;96408.44;1787374;79;21132;-79
2021/03/22 09:17:37;;;;;;;6.22;3.72;;;;;;;6.85;44.78;96405.42;1774895;80;21112;-78
2021/03/22 09:20:24;;;;;;;7.17;3.80;;;;;;;6.48;45.97;96410.83;1770541;80;21536;-79
2021/03/22 09:23:04;;;;;;;6.30;3.50;;;;;;;6.33;47.17;96414.16;1783631;80;21507;-79
2021/03/22 09:25:56;;;;;;;7.00;3.75;;;;;;;6.17;47.39;96413.80;1783464;80;21103;-79
2021/03/22 09:28:31;;;;;;;5.83;3.50;;;;;;;5.97;47.35;96405.27;1792156;79;21606;-79
2021/03/22 09:31:16;;;;;;;7.90;3.22;;;;;;;5.77;47.96;96415.12;1734895;82;21140;-79
2021/03/22 09:33:54;;;;;;;8.20;3.10;;;;;;;5.49;47.43;96412.76;1728859;83;21101;-79
2021/03/22 09:36:46;;;;;;;7.37;2.58;;;;;;;5.08;48.07;96417.66;1715536;82;21167;-78
2021/03/22 09:39:22;;;;;;;;;;;;;;;4.81;47.75;96414.22;1720948;82;21583;-79
2021/03/22 09:42:10;;;;;;;4.25;2.27;;;;;;;4.51;48.15;96427.27;1741628;81;20132;-79
2021/03/22 09:44:58;;;;;;;4.28;2.30;;;;;;;4.47;48.84;96423.52;1709438;83;21172;-79
2021/03/22 09:47:36;;;;;;;6.20;2.35;;;;;;;4.49;48.51;96420.13;1749526;81;21116;-79
2021/03/22 09:50:25;;;;;;;5.50;2.67;;;;;;;4.43;49.00;96421.91;1748597;82;21119;-79
2021/03/22 09:52:58;;;;;;;5.65;2.12;;;;;;;4.46;49.17;96428.50;1745354;82;21144;-79
2021/03/22 09:55:33;;;;;;;5.87;2.50;;;;;;;4.93;49.57;96420.14;1748608;81;21179;-79
2021/03/22 09:58:28;;;;;;;4.17;2.10;;;;;;;5.11;48.22;96419.79;1771186;81;21139;-79
2021/03/22 10:01:04;;;;;;;5.45;1.90;;;;;;;4.88;48.76;96420.85;1753514;81;21144;-79
2021/03/22 10:03:40;;;;;;;3.27;1.65;;;;;;;4.72;48.87;96417.27;1715268;82;21150;-79
2021/03/22 10:06:43;;;;;;;6.62;2.33;;;;;;;4.43;48.40;96424.53;1711897;82;21135;-79
2021/03/22 10:09:27;;;;;;;6.03;2.62;;;;;;;4.03;48.47;96420.84;1703253;82;21487;-79
2021/03/22 10:11:57;;;;;;;5.08;2.27;;;;;;;3.63;48.62;96418.92;1726393;82;21151;-79
2021/03/22 10:14:39;;;;;;;4.97;1.90;;;;;;;3.97;49.92;96415.78;1724191;82;21156;-79
2021/03/22 10:17:14;;;;;;;5.17;1.87;;;;;;;4.65;50.20;96414.56;1726189;82;21180;-79
2021/03/22 10:19:46;;;;;;;3.00;1.37;;;;;;;5.23;49.31;96412.55;1725473;82;21188;-79
2021/03/22 10:22:23;;;;;;;2.15;1.10;;;;;;;5.56;48.71;96412.05;1719199;82;21134;-79
2021/03/22 10:25:08;;;;;;;3.42;1.30;;;;;;;5.46;45.15;96411.42;1709124;82;21508;-79
2021/03/22 10:27:40;;;;;;;4.08;1.57;;;;;;;5.39;47.57;96410.86;1731111;82;21109;-79
2021/03/22 10:30:16;;;;;;;2.83;1.32;;;;;;;5.50;47.02;96411.22;1731134;82;21159;-80
2021/03/22 10:33:04;;;;;;;5.40;1.40;;;;;;;5.60;46.95;96407.34;1724438;82;21102;-80
2021/03/22 10:35:52;;;;;;;2.90;1.52;;;;;;;5.64;46.79;96411.07;1722085;82;21124;-80
2021/03/22 10:38:25;;;;;;;2.80;1.50;;;;;;;5.26;43.13;96414.68;1733133;82;21163;-80
2021/03/22 10:40:56;;;;;;;3.87;1.57;;;;;;;4.73;45.45;96412.80;1732861;82;21151;-79
2021/03/22 10:43:35;;;;;;;2.92;1.15;;;;;;;4.64;46.83;96417.69;1731882;82;21115;-79
2021/03/22 10:46:23;;;;;;;2.62;1.15;;;;;;;4.53;46.08;96417.31;1724064;82;21119;-79
2021/03/22 10:49:07;;;;;;;4.25;1.75;;;;;;;4.42;45.96;96424.78;1711008;82;21149;-79
2021/03/22 10:51:49;;;;;;;2.75;1.32;;;;;;;4.26;46.14;96413.81;1708447;82;21151;-79
2021/03/22 10:54:24;;;;;;;2.45;1.22;;;;;;;4.17;46.70;96422.09;1723064;82;21219;-79
2021/03/22 10:56:57;;;;;;;5.75;1.50;;;;;;;4.16;46.92;96420.50;1732348;82;21122;-79
2021/03/22 10:59:39;;;;;;;2.47;1.10;;;;;;;4.11;47.31;96413.88;1722649;82;21154;-79
2021/03/22 11:02:18;;;;;;;4.15;1.27;;;;;;;4.09;47.29;96418.58;1718962;82;21306;-80
2021/03/22 11:04:47;;;;;;;3.02;1.27;;;;;;;3.94;46.66;96411.81;1732394;82;21557;-80
2021/03/22 11:07:27;;;;;;;4.30;1.60;;;;;;;3.78;47.32;96412.08;1729855;82;21108;-80
2021/03/22 11:10:13;;;;;;;;;;;;;;;3.71;47.50;96417.22;1718371;82;21172;-79
2021/03/22 11:12:48;;;;;;;1.77;1.02;;;;;;;3.62;47.88;96412.88;1717166;82;20122;-79
2021/03/22 11:15:33;;;;;;;2.77;1.52;;;;;;;3.45;47.53;96412.88;1725527;82;21144;-79
2021/03/22 11:18:05;;;;;;;4.00;1.50;;;;;;;3.35;48.33;96415.84;1723933;82;21142;-79
2021/03/22 11:20:34;;;;;;;4.35;1.32;;;;;;;3.45;48.07;96415.50;1720361;82;21120;-79
2021/03/22 11:23:41;;;;;;;2.42;0.93;;;;;;;3.63;48.87;96414.98;1728824;82;21196;-79
2021/03/22 11:26:28;;;;;;;11.97;5.90;;;;;;;3.88;48.27;96407.51;1696772;82;21194;-79
2021/03/22 11:29:23;;;;;;;18.15;16.40;;;;;;;3.92;48.45;96409.92;1732764;82;21136;-79
2021/03/22 11:32:01;;;;;;;5.30;3.15;;;;;;;3.99;48.48;96407.94;1733391;82;21304;-79
2021/03/22 11:34:37;;;;;;;4.40;2.17;;;;;;;4.57;49.21;96398.71;1727505;83;21114;-80
2021/03/22 11:37:22;;;;;;;4.78;2.00;;;;;;;5.08;47.69;96399.80;1731839;82;21115;-80
2021/03/22 11:40:08;;;;;;;2.05;1.20;;;;;;;5.12;47.76;96394.30;1720979;82;21155;-80
2021/03/22 11:43:01;;;;;;;6.15;3.92;;;;;;;5.03;45.51;96390.01;1726871;82;21157;-80
2021/03/22 11:45:40;;;;;;;4.50;2.05;;;;;;;4.87;46.56;96394.84;1726456;82;21540;-80
2021/03/22 11:48:22;;;;;;;2.85;1.50;;;;;;;5.00;46.44;96395.77;1747969;82;21130;-80
2021/03/22 11:51:03;;;;;;;3.77;1.80;;;;;;;4.88;46.33;96396.42;1736470;82;21158;-80
2021/03/22 11:53:31;;;;;;;3.22;1.12;;;;;;;4.75;44.68;96397.59;1728307;82;21500;-79
2021/03/22 11:56:24;;;;;;;2.62;1.02;;;;;;;4.55;45.63;96399.48;1728509;82;21550;-80
2021/03/22 11:58:49;;;;;;;2.90;1.50;;;;;;;4.46;46.01;96405.66;1728119;82;21196;-80
2021/03/22 12:01:28;;;;;;;2.15;0.98;;;;;;;4.39;46.33;96414.77;1731207;82;21175;-80
2021/03/22 12:04:07;;;;;;;2.83;1.30;;;;;;;4.36;46.40;96417.86;1740006;82;21274;-80
2021/03/22 12:07:04;;;;;;;2.90;1.15;;;;;;;4.21;45.25;96414.52;1725041;82;21161;-79
2021/03/22 12:09:37;;;;;;;3.77;1.40;;;;;;;4.00;46.14;96423.16;1722130;82;21167;-80
2021/03/22 12:14:49;;;;;;;3.55;1.52;;;;;;;3.85;46.34;96419.80;1801830;79;23097;-79
2021/03/22 12:17:31;;;;;;;4.70;1.57;;;;;;;3.83;46.86;96414.00;1776245;79;21128;-79
2021/03/22 12:19:59;;;;;;;8.13;4.50;;;;;;;3.84;46.87;96416.38;1783183;79;21115;-79
2021/03/22 12:22:26;;;;;;;3.33;1.77;;;;;;;3.93;47.20;96410.71;1753247;80;21136;-79
2021/03/22 12:24:53;;;;;;;1.95;1.25;;;;;;;3.97;47.10;96421.81;1754102;81;21119;-79
2021/03/22 12:27:21;;;;;;;4.15;0.93;;;;;;;3.87;47.30;96422.97;1748671;81;21145;-79
2021/03/22 12:29:50;;;;;;;2.05;1.02;;;;;;;3.87;47.17;96428.22;1764891;81;21265;-79
2021/03/22 12:32:22;;;;;;;3.42;1.10;;;;;;;3.96;47.94;96424.16;1748831;81;21139;-79
2021/03/22 12:34:50;;;;;;;5.00;2.30;;;;;;;4.11;48.16;96423.06;1760025;80;21277;-79
2021/03/22 12:37:33;;;;;;;3.90;1.40;;;;;;;4.20;47.75;96420.02;1754813;81;21136;-79